Flight Track Log - Related Links

Times and Time Zones

All times are in EDT time to prevent confusion due to time zone crossing. See the CTL13 flight status page for this flight to view local times or setup timezone preferences in your user account.


Time Position Orientation Groundspeed Altitude Reporting Facility
EDT Latitude Longitude Course Direction KTS MPH feet Rate Location/Type
Mon 08:21:28 PM 39.9000 -86.3167 17° North 156 180 2,900  Level Indianapolis TRACON
Mon 08:22:06 PM 39.9208 -86.3458 313° West 155 178 3,200 557 Climbing Chicago Center
Mon 08:23:05 PM 39.9508 -86.3842 316° Northwest 154 177 3,800 595 Climbing Indianapolis Center
Mon 08:24:07 PM 39.9828 -86.4233 317° Northwest 156 180 4,400 584 Climbing Indianapolis Center
Mon 08:26:00 PM 39.8486 -86.2873 17° North  Level FlightAware Approximate
Mon 08:26:10 PM 40.0508 -86.4981 320° Northwest 159 183 5,600  Level Indianapolis Center
Mon 08:27:11 PM 40.0919 -86.5464 318° Northwest 162 186 6,000 146 Climbing Indianapolis Center
Mon 08:28:13 PM 40.1300 -86.5878 320° Northwest 170 196 5,900  Descending Indianapolis Center
Mon 08:29:15 PM 40.1681 -86.6331 318° Northwest 178 205 6,000 49 Climbing Indianapolis Center
Mon 08:30:16 PM 40.2058 -86.6764 319° Northwest 181 208 6,000 -49 Level Indianapolis Center
Mon 08:31:18 PM 40.2442 -86.7178 321° Northwest 180 207 5,900 -48 Descending Indianapolis Center
Mon 08:32:20 PM 40.2825 -86.7600 320° Northwest 180 207 5,900  Level Indianapolis Center
Mon 08:33:16 PM 40.3197 -86.8072 316° Northwest 177 204 5,900  Level Chicago Center
Mon 08:34:17 PM 40.3600 -86.8481 322° Northwest 175 201 5,900  Level Chicago Center
Mon 08:35:18 PM 40.3939 -86.8886 318° Northwest 174 200 5,900  Level Chicago Center
Mon 08:35:33 PM 40.4008 -86.8911 345° North 174 200 5,900  Level Chicago Center
Mon 08:37:28 PM 40.4753 -86.9747 320° Northwest 177 204 5,900 34 Level Indianapolis Center
Mon 08:38:29 PM 40.5108 -87.0175 318° Northwest 176 203 6,000 49 Climbing Indianapolis Center
Mon 08:39:31 PM 40.5475 -87.0586 320° Northwest 175 201 6,000 -49 Level Indianapolis Center
Mon 08:40:32 PM 40.5844 -87.0928 325° Northwest 170 196 5,900 -49 Descending Indianapolis Center
Mon 08:41:34 PM 40.6369 -87.1164 341° North 164 189 5,900  Level Indianapolis Center
Mon 08:42:47 PM 40.6850 -87.1381 341° North 165 190 5,900  Level Chicago Center
Mon 08:43:50 PM 40.7261 -87.1592 339° North 161 185 5,900 48 Level Chicago Center
Mon 08:44:52 PM 40.7750 -87.1856 338° Northwest 160 184 6,000 48 Climbing Chicago Center
Mon 08:45:54 PM 40.8164 -87.2086 337° Northwest 163 188 6,000  Level Chicago Center
Mon 08:47:58 PM 40.8986 -87.2544 337° Northwest 161 185 6,000 -32 Level Chicago Center
Mon 08:49:00 PM 40.9428 -87.2767 339° North 166 191 5,900  Descending Chicago Center
Mon 08:50:00 PM 40.9846 -87.2977 339° North  Level FlightAware Approximate
Mon 08:51:04 PM 41.0367 -87.3256 339° North 166 191 6,000  Level Chicago Center
Mon 08:52:06 PM 41.0789 -87.3494 337° Northwest 165 190 6,000 -290 Level Chicago Center
Mon 08:53:08 PM 41.1233 -87.3722 339° North 171 197 5,400 -613 Descending Chicago Center
Mon 08:55:12 PM 41.2283 -87.4297 338° Northwest 184 212 4,100 -452 Descending Chicago Center
Mon 08:56:14 PM 41.2747 -87.4561 337° Northwest 184 212 4,000 -48 Descending Chicago Center
Mon 08:57:16 PM 41.3189 -87.4786 339° North 179 206 4,000  Level Chicago Center
Mon 08:58:18 PM 41.3639 -87.5008 340° North 175 201 4,000  Level Chicago Center
Mon 08:59:21 PM 41.4183 -87.5303 338° Northwest 176 203 4,000  Level Chicago Center
Mon 09:01:25 PM 41.5094 -87.5592 347° North 171 197 4,000 23 Level Chicago Center
Mon 09:03:37 PM 41.6167 -87.5667 357° North 175 201 4,100  Climbing Chicago TRACON
Mon 09:04:37 PM 41.6167 -87.6333 270° West 181 208 4,000 -52 Descending Chicago TRACON
Mon 09:05:33 PM 41.6097 -87.6922 261° West 181 208 4,000  Level Chicago Center
Mon 09:06:35 PM 41.6075 -87.7581 267° West 179 206 4,000 48 Level Chicago Center
Mon 09:07:37 PM 41.6042 -87.8253 266° West 181 208 4,100 49 Climbing Chicago Center
Mon 09:08:38 PM 41.5742 -87.8719 229° Southwest 178 205 4,100 -293 Level Chicago Center
Mon 09:09:40 PM 41.5333 -87.9111 216° Southwest 179 206 3,500 -484 Descending Chicago Center
Mon 09:10:42 PM 41.5397 -87.9800 277° West 191 220 3,100 -194 Descending Chicago Center
Mon 09:11:44 PM 41.5803 -87.9947 345° North 182 209 3,100 -48 Level Chicago Center
Mon 09:12:46 PM 41.6183 -87.9608 34° Northeast 172 198 3,000 -242 Descending Chicago Center
Mon 09:13:48 PM 41.6525 -87.9161 44° Northeast 171 197 2,600 -242 Descending Chicago Center
Mon 09:14:50 PM 41.6883 -87.8733 42° Northeast 172 198 2,500  Descending Chicago Center
Mon 09:15:52 PM 41.7292 -87.8247 42° Northeast 169 194 2,600 -488 Climbing Chicago Center
Mon 09:16:53 PM 41.7567 -87.7889 44° Northeast 154 177 1,500 -732 Descending Chicago Center
Mon 09:17:55 PM 41.7797 -87.7589 44° Northeast 147 169 1,100 -387 Descending Chicago Center
Mon 09:19:00 PM 41.7833 -87.7500 22° Northeast  Level FlightAware Approximate

Login

Don't have an account? Register now (free) for customized features, flight alerts, and more!